Time;durP1;ratioP1;P1;durP2;ratioP2;P2;SDS_P1;SDS_P2;PMS_P1;PMS_P2;Temp;Humidity;BMP_temperature;BMP_pressure;BME280_temperature;BME280_humidity;BME280_pressure;Samples;Min_cycle;Max_cycle;Signal;HPM_P1;HPM_P2
2022/01/31 00:02:11;;;;;;;13.07;4.00;;;1.80;99.90;;;;;;5090386;28;20042;-69
2022/01/31 00:04:37;;;;;;;12.85;4.18;;;1.80;99.90;;;;;;5088167;28;20024;-68
2022/01/31 00:07:03;;;;;;;11.65;3.78;;;1.80;99.90;;;;;;5087056;28;20080;-68
2022/01/31 00:09:29;;;;;;;9.95;3.67;;;1.80;99.90;;;;;;5081037;28;20111;-68
2022/01/31 00:12:02;;;;;;;10.35;3.83;;;1.80;99.90;;;;;;5089909;28;20035;-68
2022/01/31 00:14:42;;;;;;;13.88;3.60;;;1.90;99.90;;;;;;5089644;28;20039;-68
2022/01/31 00:17:08;;;;;;;11.38;3.72;;;1.90;99.90;;;;;;5088121;28;20036;-68
2022/01/31 00:19:35;;;;;;;14.23;4.00;;;1.80;99.90;;;;;;5089819;28;20028;-68
2022/01/31 00:22:03;;;;;;;19.65;3.70;;;1.90;99.90;;;;;;5090207;28;20027;-68
2022/01/31 00:24:28;;;;;;;13.50;4.13;;;1.90;99.90;;;;;;5088714;28;20024;-68
2022/01/31 00:26:54;;;;;;;7.22;3.97;;;1.90;99.90;;;;;;5089212;28;20027;-68
2022/01/31 00:29:19;;;;;;;11.23;3.50;;;1.90;99.90;;;;;;5088538;28;20043;-68
2022/01/31 00:31:45;;;;;;;18.23;4.15;;;1.90;99.90;;;;;;5089869;28;20032;-69
2022/01/31 00:34:10;;;;;;;12.23;4.18;;;1.90;99.90;;;;;;5088922;28;20467;-68
2022/01/31 00:36:36;;;;;;;12.00;4.07;;;1.90;99.90;;;;;;5090180;28;20667;-69
2022/01/31 00:39:03;;;;;;;16.88;4.10;;;1.90;99.90;;;;;;5088591;28;20036;-68
2022/01/31 00:41:29;;;;;;;11.48;4.22;;;1.80;99.90;;;;;;5089277;28;20020;-68
2022/01/31 00:44:37;;;;;;;13.27;4.07;;;1.80;99.90;;;;;;5089303;28;20027;-68
2022/01/31 00:46:59;;;;;;;13.20;3.78;;;1.90;99.90;;;;;;5084770;28;20089;-68
2022/01/31 00:51:57;;;;;;;13.00;3.05;;;1.90;99.90;;;;;;5089901;28;20111;-68
2022/01/31 00:54:23;;;;;;;19.02;4.25;;;1.80;99.90;;;;;;5088870;28;20060;-68
2022/01/31 00:56:52;;;;;;;13.50;3.67;;;1.80;99.90;;;;;;5088663;28;20121;-68
2022/01/31 00:59:18;;;;;;;13.45;3.63;;;1.80;99.90;;;;;;5088947;28;20104;-68
2022/01/31 01:01:45;;;;;;;13.10;3.42;;;1.80;99.90;;;;;;5087834;28;20507;-68
2022/01/31 01:04:10;;;;;;;13.38;3.28;;;1.80;99.90;;;;;;5089478;28;20039;-68
2022/01/31 01:06:36;;;;;;;15.25;3.70;;;1.80;99.90;;;;;;5089038;28;20453;-68
2022/01/31 01:09:02;;;;;;;18.50;4.13;;;1.80;99.90;;;;;;5085095;28;20034;-67
2022/01/31 01:11:28;;;;;;;14.63;3.92;;;1.90;99.90;;;;;;5092481;28;20103;-68
2022/01/31 01:13:53;;;;;;;14.82;3.83;;;1.90;99.90;;;;;;5088548;28;20104;-68
2022/01/31 01:16:19;;;;;;;10.85;3.20;;;1.90;99.90;;;;;;5081453;28;20029;-68
2022/01/31 01:18:44;;;;;;;10.32;3.65;;;2.00;99.90;;;;;;5077304;28;20472;-68
2022/01/31 01:21:10;;;;;;;17.48;3.97;;;1.90;99.90;;;;;;5089317;28;20032;-68
2022/01/31 01:23:36;;;;;;;10.30;3.53;;;2.00;99.90;;;;;;5089202;28;20499;-68
2022/01/31 01:26:01;;;;;;;13.65;4.15;;;2.00;99.90;;;;;;5089323;28;20496;-68
2022/01/31 01:28:27;;;;;;;9.30;3.30;;;2.00;99.90;;;;;;5088107;28;20039;-68
2022/01/31 01:30:55;;;;;;;11.63;2.90;;;2.10;99.90;;;;;;5089187;28;20087;-68
2022/01/31 01:33:22;;;;;;;14.10;3.53;;;2.10;99.90;;;;;;5088242;28;20024;-69
2022/01/31 01:35:51;;;;;;;6.45;2.88;;;2.10;99.90;;;;;;5088436;28;20135;-67
2022/01/31 01:38:23;;;;;;;8.65;3.17;;;2.10;99.90;;;;;;5091790;28;20036;-67
2022/01/31 01:40:49;;;;;;;17.13;3.10;;;2.10;99.90;;;;;;5092637;28;20056;-67
2022/01/31 01:43:16;;;;;;;9.35;2.72;;;2.10;99.90;;;;;;5092482;28;20051;-67
2022/01/31 01:45:43;;;;;;;12.57;2.90;;;2.10;99.90;;;;;;5089102;28;20042;-67
2022/01/31 01:48:09;;;;;;;17.02;3.65;;;2.10;99.90;;;;;;5090406;28;20024;-67
2022/01/31 01:50:38;;;;;;;13.73;3.90;;;2.00;99.90;;;;;;5092638;28;20077;-68
2022/01/31 01:53:05;;;;;;;13.60;3.55;;;2.10;99.90;;;;;;5092850;28;20020;-67
2022/01/31 01:55:31;;;;;;;15.48;3.38;;;2.10;99.90;;;;;;5092024;28;20026;-67
2022/01/31 01:57:57;;;;;;;10.20;3.20;;;2.10;99.90;;;;;;5084378;28;20743;-67
2022/01/31 02:00:26;;;;;;;12.25;3.28;;;2.10;99.90;;;;;;5092904;28;20699;-67
2022/01/31 02:02:52;;;;;;;15.73;3.58;;;2.10;99.90;;;;;;5093368;28;20062;-68
2022/01/31 02:05:18;;;;;;;15.82;3.85;;;2.10;99.90;;;;;;5090843;28;20032;-68
2022/01/31 02:07:44;;;;;;;12.40;3.45;;;2.10;99.90;;;;;;5089792;28;20172;-68
2022/01/31 02:10:11;;;;;;;15.00;3.38;;;2.10;99.90;;;;;;5081023;28;20021;-67
2022/01/31 02:12:45;;;;;;;11.27;3.45;;;2.10;99.90;;;;;;5089434;28;20048;-68
2022/01/31 02:15:13;;;;;;;17.52;3.85;;;2.10;99.90;;;;;;5092939;28;20024;-68
2022/01/31 02:17:39;;;;;;;12.70;4.03;;;2.10;99.90;;;;;;5091256;28;20476;-68
2022/01/31 02:20:07;;;;;;;11.07;3.72;;;2.10;99.90;;;;;;5088526;28;20143;-68
2022/01/31 02:22:33;;;;;;;13.45;4.00;;;2.00;99.90;;;;;;5092348;28;20101;-68
2022/01/31 02:24:59;;;;;;;14.02;3.60;;;2.00;99.90;;;;;;5092096;28;20056;-68
2022/01/31 02:27:35;;;;;;;11.20;3.83;;;2.00;99.90;;;;;;5091513;28;20043;-67
2022/01/31 02:30:02;;;;;;;12.15;3.88;;;2.00;99.90;;;;;;5092175;28;20032;-68
2022/01/31 02:32:28;;;;;;;12.63;3.72;;;2.00;99.90;;;;;;5091573;28;20112;-68
2022/01/31 02:34:53;;;;;;;10.07;3.88;;;2.00;99.90;;;;;;5092719;28;20112;-68
2022/01/31 02:37:20;;;;;;;9.25;3.83;;;2.00;99.90;;;;;;5091108;28;20020;-69
2022/01/31 02:39:46;;;;;;;13.35;3.88;;;2.00;99.90;;;;;;5092060;28;20543;-69
2022/01/31 02:42:12;;;;;;;11.32;4.00;;;2.00;99.90;;;;;;5091669;28;20120;-69
2022/01/31 02:44:43;;;;;;;11.82;3.90;;;2.00;99.90;;;;;;5091225;28;20103;-68
2022/01/31 02:47:12;;;;;;;14.05;4.05;;;2.00;99.90;;;;;;5077374;28;20020;-69
2022/01/31 02:49:48;;;;;;;16.13;4.15;;;2.10;99.90;;;;;;5090659;28;20023;-69
2022/01/31 02:52:15;;;;;;;13.45;3.78;;;2.10;99.90;;;;;;5089087;28;20123;-68
2022/01/31 02:54:41;;;;;;;17.92;4.05;;;2.00;99.90;;;;;;5091378;28;20028;-69
2022/01/31 02:57:06;;;;;;;10.63;3.88;;;2.10;99.90;;;;;;5090912;28;20046;-69
2022/01/31 02:59:32;;;;;;;12.75;3.53;;;2.00;99.90;;;;;;5091800;28;20107;-69
2022/01/31 03:01:58;;;;;;;8.32;3.10;;;2.00;99.90;;;;;;5091469;28;20103;-68
2022/01/31 03:04:24;;;;;;;9.25;3.75;;;2.00;99.90;;;;;;5091819;28;20066;-68
2022/01/31 03:06:50;;;;;;;10.40;3.50;;;2.00;99.90;;;;;;5090559;28;20029;-69
2022/01/31 03:09:16;;;;;;;15.35;3.58;;;2.00;99.90;;;;;;5073765;28;20130;-69
2022/01/31 03:11:42;;;;;;;15.75;3.78;;;2.00;99.90;;;;;;5089729;28;20020;-69
2022/01/31 03:14:09;;;;;;;10.85;3.33;;;2.00;99.90;;;;;;5095155;28;20055;-69
2022/01/31 03:16:39;;;;;;;9.52;3.42;;;2.00;99.90;;;;;;5091060;28;20411;-68
2022/01/31 03:19:06;;;;;;;18.15;3.58;;;2.00;99.90;;;;;;5090981;28;20024;-70
2022/01/31 03:21:32;;;;;;;10.40;3.80;;;2.00;99.90;;;;;;5090541;28;20089;-69
2022/01/31 03:23:57;;;;;;;11.88;3.25;;;2.00;99.90;;;;;;5091313;28;20094;-69
2022/01/31 03:26:23;;;;;;;13.30;3.42;;;2.00;99.90;;;;;;5090453;28;20012;-68
2022/01/31 03:28:50;;;;;;;15.63;3.63;;;2.00;99.90;;;;;;5090595;28;20589;-68
2022/01/31 03:31:18;;;;;;;13.75;3.83;;;2.00;99.90;;;;;;5089561;28;20541;-69
2022/01/31 03:33:45;;;;;;;14.13;3.40;;;2.00;99.90;;;;;;5090628;28;20020;-69
2022/01/31 03:36:11;;;;;;;14.20;3.55;;;2.00;99.90;;;;;;5090186;28;20165;-68
2022/01/31 03:38:40;;;;;;;11.68;3.42;;;2.00;99.90;;;;;;5089336;28;20623;-69
2022/01/31 03:41:17;;;;;;;11.35;3.25;;;2.10;99.90;;;;;;5080002;28;20019;-69
2022/01/31 03:43:43;;;;;;;13.25;3.00;;;2.10;99.90;;;;;;5087144;28;20093;-69
2022/01/31 03:46:09;;;;;;;14.10;3.38;;;2.10;99.90;;;;;;5089966;28;20074;-67
2022/01/31 03:48:35;;;;;;;12.73;3.25;;;2.10;99.90;;;;;;5089590;28;20125;-67
2022/01/31 03:51:02;;;;;;;17.33;2.97;;;2.10;99.90;;;;;;5080877;28;20025;-67
2022/01/31 03:53:28;;;;;;;17.77;3.83;;;2.10;99.90;;;;;;5075853;28;20501;-68
2022/01/31 03:55:54;;;;;;;10.38;3.03;;;2.10;99.90;;;;;;5091083;28;20081;-67
2022/01/31 03:58:20;;;;;;;12.25;3.83;;;2.20;99.90;;;;;;5088616;28;20028;-67
2022/01/31 04:00:46;;;;;;;16.05;3.20;;;2.20;99.90;;;;;;5090469;28;20132;-67
2022/01/31 04:03:12;;;;;;;14.23;3.13;;;2.20;99.90;;;;;;5089880;28;20016;-67
2022/01/31 04:05:38;;;;;;;9.45;2.92;;;2.20;99.90;;;;;;5088578;28;20043;-66
2022/01/31 04:08:05;;;;;;;11.05;3.35;;;2.30;99.90;;;;;;5086013;28;20037;-67
2022/01/31 04:10:32;;;;;;;10.10;3.05;;;2.30;99.90;;;;;;5080666;28;20115;-67
2022/01/31 04:12:58;;;;;;;11.25;3.20;;;2.30;99.90;;;;;;5100678;28;20695;-66
2022/01/31 04:15:23;;;;;;;9.40;2.80;;;2.40;99.90;;;;;;5090664;28;20048;-66
2022/01/31 04:17:49;;;;;;;20.08;3.70;;;2.40;99.90;;;;;;5088535;28;20085;-67
2022/01/31 04:20:16;;;;;;;8.90;3.17;;;2.40;99.90;;;;;;5089185;28;20433;-67
2022/01/31 04:22:56;;;;;;;10.85;2.97;;;2.50;99.90;;;;;;5090022;28;20529;-67
2022/01/31 04:25:43;;;;;;;9.75;2.78;;;2.50;99.90;;;;;;5085964;28;20062;-67
2022/01/31 04:28:31;;;;;;;11.75;3.20;;;2.50;99.90;;;;;;5089514;28;20024;-67
2022/01/31 04:31:12;;;;;;;12.30;3.03;;;2.50;99.90;;;;;;5089417;28;20084;-67
2022/01/31 04:33:38;;;;;;;11.18;3.30;;;2.60;99.90;;;;;;5086460;28;20020;-67
2022/01/31 04:36:04;;;;;;;15.82;3.08;;;2.60;99.90;;;;;;5088793;28;20089;-67
2022/01/31 04:38:30;;;;;;;11.02;3.20;;;2.60;99.90;;;;;;5088530;28;20028;-66
2022/01/31 04:40:56;;;;;;;10.13;3.58;;;2.60;99.90;;;;;;5089727;28;20077;-68
2022/01/31 04:43:21;;;;;;;8.77;3.05;;;2.60;99.90;;;;;;5083943;28;20870;-67
2022/01/31 04:45:48;;;;;;;14.68;2.90;;;2.60;99.90;;;;;;5089654;28;20027;-67
2022/01/31 04:48:19;;;;;;;10.93;3.10;;;2.60;99.90;;;;;;5087817;28;20073;-66
2022/01/31 04:50:45;;;;;;;7.68;3.38;;;2.60;99.90;;;;;;5089217;28;20483;-66
2022/01/31 04:53:12;;;;;;;10.50;2.78;;;2.60;99.90;;;;;;5088180;28;20028;-66
2022/01/31 04:55:38;;;;;;;12.57;3.35;;;2.60;99.90;;;;;;5089607;28;20035;-67
2022/01/31 04:58:05;;;;;;;13.23;3.25;;;2.60;99.90;;;;;;5088495;28;20061;-68
2022/01/31 05:00:31;;;;;;;10.77;2.95;;;2.60;99.90;;;;;;5089012;28;20146;-67
2022/01/31 05:02:56;;;;;;;11.27;3.50;;;2.60;99.90;;;;;;5087613;28;20111;-67
2022/01/31 05:05:22;;;;;;;11.27;3.00;;;2.60;99.90;;;;;;5089604;28;20037;-68
2022/01/31 05:07:51;;;;;;;11.10;3.33;;;2.60;99.90;;;;;;5124344;22;20036;-68
2022/01/31 05:10:18;;;;;;;10.18;3.20;;;2.60;99.90;;;;;;5065059;28;20068;-67
2022/01/31 05:12:43;;;;;;;13.32;3.40;;;2.60;99.90;;;;;;5065308;28;20133;-68
2022/01/31 05:15:09;;;;;;;8.13;2.75;;;2.60;99.90;;;;;;5045913;28;20477;-68
2022/01/31 05:17:35;;;;;;;12.70;3.55;;;2.60;99.90;;;;;;5035396;28;20028;-68
2022/01/31 05:20:00;;;;;;;13.23;3.67;;;2.60;99.90;;;;;;5036317;28;20090;-68
2022/01/31 05:22:26;;;;;;;10.57;3.03;;;2.60;99.90;;;;;;5049251;28;20594;-68
2022/01/31 05:24:52;;;;;;;15.13;3.47;;;2.60;99.90;;;;;;5049009;28;20029;-68
2022/01/31 05:27:17;;;;;;;14.05;2.72;;;2.60;99.90;;;;;;5048579;28;20087;-68
2022/01/31 05:29:43;;;;;;;11.10;3.30;;;2.60;99.90;;;;;;5048581;28;20044;-68
2022/01/31 05:32:09;;;;;;;8.85;2.70;;;2.60;99.90;;;;;;5045007;28;20025;-68
2022/01/31 05:34:34;;;;;;;13.07;3.40;;;2.60;99.90;;;;;;5045622;28;20492;-68
2022/01/31 05:37:00;;;;;;;8.18;2.95;;;2.60;99.90;;;;;;5043266;28;20040;-68
2022/01/31 05:39:26;;;;;;;11.45;3.42;;;2.70;99.90;;;;;;5040454;28;20033;-68
2022/01/31 05:41:55;;;;;;;14.20;3.53;;;2.60;99.90;;;;;;5029866;28;20033;-68
2022/01/31 05:44:23;;;;;;;13.85;3.15;;;2.70;99.90;;;;;;5042417;28;20029;-68
2022/01/31 05:46:48;;;;;;;15.02;4.15;;;2.70;99.90;;;;;;5049560;28;20113;-68
2022/01/31 05:49:14;;;;;;;12.95;3.38;;;2.60;99.90;;;;;;5047930;28;20029;-68
2022/01/31 05:52:04;;;;;;;9.88;3.22;;;2.70;99.90;;;;;;5049541;28;20380;-68
2022/01/31 05:54:31;;;;;;;8.40;3.25;;;2.70;99.90;;;;;;5048989;28;20037;-68
2022/01/31 05:56:57;;;;;;;11.32;3.30;;;2.70;99.90;;;;;;5037493;28;20029;-68
2022/01/31 05:59:23;;;;;;;10.82;3.20;;;2.70;99.90;;;;;;5031585;28;20345;-68
2022/01/31 06:01:49;;;;;;;6.35;2.80;;;2.70;99.90;;;;;;5049460;28;20143;-68
2022/01/31 06:04:14;;;;;;;14.05;3.17;;;2.70;99.90;;;;;;5049332;28;20100;-68
2022/01/31 06:06:40;;;;;;;10.90;3.25;;;2.70;99.90;;;;;;5050117;28;20096;-68
2022/01/31 06:09:06;;;;;;;9.73;3.10;;;2.70;99.90;;;;;;5037255;28;20030;-68
2022/01/31 06:11:34;;;;;;;17.75;3.55;;;2.70;99.90;;;;;;5049691;28;20075;-68
2022/01/31 06:14:01;;;;;;;5.10;2.78;;;2.70;99.90;;;;;;5049663;28;20087;-69
2022/01/31 06:16:27;;;;;;;8.00;3.30;;;2.70;99.90;;;;;;5049128;28;20032;-68
2022/01/31 06:18:53;;;;;;;11.73;3.05;;;2.70;99.90;;;;;;5034142;28;20089;-68
2022/01/31 06:21:18;;;;;;;10.77;3.40;;;2.70;99.90;;;;;;5048167;28;20056;-68
2022/01/31 06:23:44;;;;;;;12.85;4.25;;;2.70;99.90;;;;;;5052891;28;20031;-68
2022/01/31 06:26:10;;;;;;;11.40;4.10;;;2.70;99.90;;;;;;5048727;28;20094;-68
2022/01/31 06:28:36;;;;;;;11.13;3.47;;;2.60;99.90;;;;;;5051644;28;20576;-67
2022/01/31 06:31:02;;;;;;;13.43;3.80;;;2.60;99.90;;;;;;5053444;28;20036;-67
2022/01/31 06:33:27;;;;;;;8.82;4.05;;;2.50;99.90;;;;;;5052552;28;20080;-67
2022/01/31 06:35:53;;;;;;;9.20;3.58;;;2.50;99.90;;;;;;5034272;28;20494;-67
2022/01/31 06:38:21;;;;;;;13.43;4.00;;;2.40;99.90;;;;;;5051146;28;20033;-67
2022/01/31 06:40:47;;;;;;;12.27;4.20;;;2.40;99.90;;;;;;5042592;28;20374;-67
2022/01/31 06:43:13;;;;;;;9.48;4.00;;;2.30;99.90;;;;;;5034023;28;20382;-67
2022/01/31 06:45:39;;;;;;;17.63;5.18;;;2.20;99.90;;;;;;5031782;28;20033;-67
2022/01/31 06:48:05;;;;;;;14.85;4.53;;;2.10;99.90;;;;;;5051785;28;20025;-67
2022/01/31 06:50:31;;;;;;;12.80;4.78;;;2.10;99.90;;;;;;5052529;28;20025;-67
2022/01/31 06:52:57;;;;;;;13.77;5.82;;;2.00;99.90;;;;;;5049753;28;20044;-67
2022/01/31 06:55:23;;;;;;;14.93;5.10;;;1.90;99.90;;;;;;5053259;28;20025;-67
2022/01/31 06:57:51;;;;;;;13.50;4.95;;;1.80;99.90;;;;;;5041924;28;20067;-67
2022/01/31 07:00:19;;;;;;;21.30;6.28;;;1.80;99.90;;;;;;5033103;28;20051;-67
2022/01/31 07:02:46;;;;;;;18.80;5.50;;;1.70;99.90;;;;;;5039691;28;20064;-67
2022/01/31 07:05:15;;;;;;;14.27;5.05;;;1.60;99.90;;;;;;5041378;28;20041;-67
2022/01/31 07:07:41;;;;;;;18.20;5.70;;;1.60;99.90;;;;;;5034859;28;20017;-67
2022/01/31 07:10:08;;;;;;;20.30;5.68;;;1.60;99.90;;;;;;5049235;28;20032;-67
2022/01/31 07:12:37;;;;;;;20.67;6.93;;;1.50;99.90;;;;;;5052156;28;20461;-67
2022/01/31 07:15:05;;;;;;;16.42;6.88;;;1.50;99.90;;;;;;5049449;28;20031;-67
2022/01/31 07:17:31;;;;;;;13.82;6.22;;;1.50;99.90;;;;;;5047717;28;20033;-67
2022/01/31 07:19:57;;;;;;;17.73;6.53;;;1.50;99.90;;;;;;5045671;28;20079;-68
2022/01/31 07:22:29;;;;;;;15.82;6.28;;;1.50;99.90;;;;;;5051427;28;20028;-68
2022/01/31 07:25:07;;;;;;;16.13;7.18;;;1.40;99.90;;;;;;5046060;28;20061;-67
2022/01/31 07:27:34;;;;;;;17.77;6.78;;;1.40;99.90;;;;;;5051363;28;20273;-67
2022/01/31 07:30:00;;;;;;;18.30;7.05;;;1.40;99.90;;;;;;5052302;28;20028;-67
2022/01/31 07:32:27;;;;;;;22.73;6.70;;;1.40;99.90;;;;;;5052602;28;20078;-68
2022/01/31 07:34:55;;;;;;;33.70;14.55;;;1.40;99.90;;;;;;5050655;28;20064;-69
2022/01/31 07:37:24;;;;;;;33.10;14.93;;;1.40;99.90;;;;;;5051130;28;20086;-66
2022/01/31 07:39:51;;;;;;;30.48;13.45;;;1.40;99.90;;;;;;5051846;28;20473;-66
2022/01/31 07:42:17;;;;;;;24.88;11.80;;;1.40;99.90;;;;;;5049918;28;20029;-67
2022/01/31 07:44:43;;;;;;;21.05;10.82;;;1.40;99.90;;;;;;5051652;28;20025;-66
2022/01/31 07:47:09;;;;;;;19.92;9.32;;;1.50;99.90;;;;;;5050515;28;20029;-66
2022/01/31 07:49:35;;;;;;;12.55;5.10;;;1.60;99.90;;;;;;5051247;28;20041;-66
2022/01/31 07:52:00;;;;;;;8.75;4.18;;;1.70;99.90;;;;;;5051309;28;20033;-67
2022/01/31 07:54:27;;;;;;;9.15;4.22;;;1.70;99.90;;;;;;5051428;28;20112;-66
2022/01/31 07:56:52;;;;;;;15.00;5.13;;;1.80;99.90;;;;;;5051445;28;20040;-67
2022/01/31 07:59:18;;;;;;;11.35;5.82;;;1.80;99.90;;;;;;5043603;28;20154;-67
2022/01/31 08:01:44;;;;;;;13.57;5.70;;;1.90;99.90;;;;;;5048841;28;20108;-66
2022/01/31 08:04:10;;;;;;;16.17;7.20;;;1.90;99.90;;;;;;5045016;28;20108;-67
2022/01/31 08:06:36;;;;;;;11.57;4.07;;;2.00;99.90;;;;;;5031556;28;20097;-67
2022/01/31 08:09:03;;;;;;;7.15;3.05;;;2.00;99.90;;;;;;5034497;28;20595;-67
2022/01/31 08:11:34;;;;;;;7.85;3.53;;;2.00;99.90;;;;;;5051414;28;20108;-67
2022/01/31 08:14:05;;;;;;;10.07;4.60;;;2.10;99.90;;;;;;5050735;28;20477;-67
2022/01/31 08:16:32;;;;;;;11.10;4.40;;;2.20;99.90;;;;;;5051086;28;20672;-67
2022/01/31 08:18:57;;;;;;;4.15;3.13;;;2.20;99.90;;;;;;5049949;28;20021;-67
2022/01/31 08:21:26;;;;;;;6.53;3.67;;;2.20;99.90;;;;;;5051033;28;20032;-67
2022/01/31 08:23:53;;;;;;;8.60;3.08;;;2.30;99.90;;;;;;5050714;28;20033;-67
2022/01/31 08:26:19;;;;;;;4.55;3.58;;;2.30;99.90;;;;;;5050982;28;20091;-67
2022/01/31 08:31:28;;;;;;;6.20;3.30;;;2.40;99.90;;;;;;5037642;28;20036;-68
2022/01/31 08:36:22;;;;;;;6.53;2.67;;;2.50;99.90;;;;;;5051063;28;20043;-68
2022/01/31 08:38:48;;;;;;;3.60;2.50;;;2.50;99.90;;;;;;5049502;28;20029;-68
2022/01/31 08:41:14;;;;;;;5.35;2.90;;;2.60;99.90;;;;;;5050644;28;20024;-67
2022/01/31 08:43:40;;;;;;;7.47;3.58;;;2.60;99.90;;;;;;5050272;28;20674;-67
2022/01/31 08:46:08;;;;;;;7.30;3.83;;;2.60;99.90;;;;;;5050620;28;20024;-67
2022/01/31 08:48:34;;;;;;;4.32;2.90;;;2.60;99.90;;;;;;5049090;28;20174;-68
2022/01/31 08:51:01;;;;;;;3.33;2.70;;;2.70;99.90;;;;;;5050806;28;20087;-68
2022/01/31 08:53:27;;;;;;;4.65;2.65;;;2.70;99.90;;;;;;5050467;28;20025;-67
2022/01/31 08:55:55;;;;;;;3.95;2.60;;;2.70;99.90;;;;;;5049905;28;20354;-67
2022/01/31 08:58:22;;;;;;;7.63;3.25;;;2.70;99.90;;;;;;5045538;28;20029;-67
2022/01/31 09:00:57;;;;;;;4.72;3.40;;;2.70;99.90;;;;;;5032628;28;20557;-67
2022/01/31 09:03:41;;;;;;;4.63;2.78;;;2.70;99.90;;;;;;5032048;28;20344;-68
2022/01/31 09:06:09;;;;;;;4.80;2.30;;;2.70;99.90;;;;;;5030304;28;20454;-68
2022/01/31 09:08:35;;;;;;;3.58;2.80;;;2.80;99.90;;;;;;5032221;28;20042;-67
2022/01/31 09:11:00;;;;;;;4.45;2.72;;;2.80;99.90;;;;;;5050377;28;20032;-68
2022/01/31 09:13:26;;;;;;;3.00;2.22;;;2.90;99.90;;;;;;5049575;28;20029;-67
2022/01/31 09:15:52;;;;;;;3.25;2.53;;;2.90;99.90;;;;;;5050644;28;20028;-67
2022/01/31 09:18:18;;;;;;;3.83;2.50;;;2.90;99.90;;;;;;5035993;28;20087;-68
2022/01/31 09:20:44;;;;;;;5.38;2.50;;;2.90;99.90;;;;;;5030441;28;20125;-68
2022/01/31 09:23:09;;;;;;;4.28;2.47;;;3.00;99.90;;;;;;5032498;28;20374;-68
2022/01/31 09:25:35;;;;;;;4.68;2.70;;;3.10;99.90;;;;;;5050426;28;20040;-67
2022/01/31 09:28:03;;;;;;;7.85;2.97;;;3.10;99.90;;;;;;5048955;28;20021;-68
2022/01/31 09:30:29;;;;;;;4.95;2.65;;;3.10;99.90;;;;;;5035188;28;20025;-67
2022/01/31 09:32:56;;;;;;;7.88;3.50;;;3.20;99.90;;;;;;5033188;28;20090;-67
2022/01/31 09:35:23;;;;;;;4.22;2.90;;;3.20;99.90;;;;;;5050071;28;20048;-67
2022/01/31 09:37:49;;;;;;;3.50;2.60;;;3.30;99.90;;;;;;5048994;28;20108;-68
2022/01/31 09:40:21;;;;;;;2.30;2.10;;;3.30;99.90;;;;;;5040923;28;20042;-67
2022/01/31 09:48:33;;;;;;;8.77;4.55;;;3.40;99.90;;;;;;5048905;28;20108;-67
2022/01/31 09:51:14;;;;;;;6.13;2.45;;;3.50;99.90;;;;;;5049601;28;20385;-67
2022/01/31 09:54:00;;;;;;;5.30;2.55;;;3.50;99.90;;;;;;5048971;28;20032;-67
2022/01/31 09:56:29;;;;;;;6.43;3.30;;;3.50;99.90;;;;;;5048706;28;20432;-67
2022/01/31 09:58:56;;;;;;;5.05;3.13;;;3.50;99.90;;;;;;5041533;28;20040;-67
2022/01/31 10:01:26;;;;;;;5.80;2.90;;;3.60;99.90;;;;;;5053286;28;20037;-67
2022/01/31 10:03:54;;;;;;;4.03;2.40;;;3.60;99.90;;;;;;5053574;28;20020;-67
2022/01/31 10:06:23;;;;;;;4.40;2.83;;;3.70;99.90;;;;;;5053752;28;20051;-67
2022/01/31 10:09:08;;;;;;;4.78;1.90;;;3.70;99.90;;;;;;5052305;28;20024;-67
2022/01/31 10:17:24;;;;;;;3.95;2.38;;;3.80;99.90;;;;;;5052798;28;20158;-67
2022/01/31 10:19:51;;;;;;;2.53;1.83;;;3.90;99.90;;;;;;5033698;28;20037;-67
2022/01/31 10:22:18;;;;;;;4.78;2.20;;;3.90;99.90;;;;;;5036805;28;20044;-67
2022/01/31 10:24:46;;;;;;;2.80;1.70;;;4.00;99.90;;;;;;5052971;28;20039;-67
2022/01/31 10:27:22;;;;;;;5.68;2.33;;;3.90;99.90;;;;;;5052488;28;20088;-67
2022/01/31 10:29:51;;;;;;;7.63;2.22;;;3.90;99.90;;;;;;5035381;28;20071;-67
2022/01/31 10:32:24;;;;;;;3.40;1.77;;;3.90;99.90;;;;;;5035198;28;20048;-67
2022/01/31 10:34:54;;;;;;;3.83;1.90;;;4.00;99.90;;;;;;5035203;28;20025;-67
2022/01/31 10:37:21;;;;;;;3.25;1.90;;;4.00;99.90;;;;;;5051933;28;20075;-67
2022/01/31 10:56:40;;;;;;;1.85;1.40;;;4.10;99.90;;;;;;5052845;28;20047;-67
2022/01/31 10:59:36;;;;;;;1.73;1.27;;;4.10;99.90;;;;;;5039333;28;20028;-67
2022/01/31 11:02:05;;;;;;;4.10;1.60;;;4.20;99.90;;;;;;5046365;28;20045;-67
2022/01/31 11:04:32;;;;;;;3.83;1.50;;;4.10;99.90;;;;;;5052355;28;20098;-67
2022/01/31 11:07:03;;;;;;;6.60;1.65;;;4.10;99.90;;;;;;5068375;22;20087;-72
2022/01/31 11:09:31;;;;;;;6.05;1.65;;;4.10;99.90;;;;;;5070152;28;20036;-70
2022/01/31 11:11:57;;;;;;;5.32;1.80;;;4.10;99.90;;;;;;5072173;28;20077;-69
2022/01/31 11:14:23;;;;;;;4.80;1.55;;;4.10;99.90;;;;;;5069680;28;20024;-69
2022/01/31 11:16:49;;;;;;;5.50;1.75;;;4.10;99.90;;;;;;5072449;28;20031;-69
2022/01/31 11:19:22;;;;;;;4.32;1.70;;;4.10;99.90;;;;;;5071300;28;20390;-69
2022/01/31 11:21:49;;;;;;;7.13;1.77;;;4.10;99.90;;;;;;5054778;28;20024;-69
2022/01/31 11:24:20;;;;;;;16.15;7.88;;;4.10;99.90;;;;;;5075297;28;20024;-70
2022/01/31 11:27:11;;;;;;;7.13;2.27;;;4.00;99.90;;;;;;5077545;28;20019;-71
2022/01/31 11:29:43;;;;;;;8.05;3.78;;;4.10;99.90;;;;;;5071639;28;20045;-69
2022/01/31 11:32:09;;;;;;;7.20;3.58;;;4.10;99.90;;;;;;5072663;28;20021;-70
2022/01/31 11:34:39;;;;;;;7.05;3.10;;;4.10;99.90;;;;;;5071708;28;20487;-69
2022/01/31 11:37:10;;;;;;;5.13;2.28;;;4.10;99.90;;;;;;5071421;28;20353;-69
2022/01/31 11:39:37;;;;;;;5.40;2.97;;;4.10;99.90;;;;;;5071742;28;20024;-69
2022/01/31 11:42:05;;;;;;;3.53;1.80;;;4.10;99.90;;;;;;5071932;28;20435;-69
2022/01/31 11:44:54;;;;;;;5.43;2.20;;;4.10;99.90;;;;;;5071333;28;20017;-69
2022/01/31 11:47:23;;;;;;;6.25;2.40;;;4.20;99.90;;;;;;5070644;28;20047;-69
2022/01/31 11:49:56;;;;;;;7.53;3.67;;;4.20;99.90;;;;;;5064850;28;20032;-70
2022/01/31 11:52:23;;;;;;;7.88;3.10;;;4.20;99.90;;;;;;5063663;28;20402;-68
2022/01/31 11:54:56;;;;;;;4.93;2.65;;;4.20;99.90;;;;;;5073435;28;20031;-70
2022/01/31 11:57:33;;;;;;;8.20;4.47;;;4.30;99.90;;;;;;5050638;28;20024;-68
2022/01/31 12:00:11;;;;;;;5.47;3.08;;;4.30;99.90;;;;;;5060000;28;20093;-68
2022/01/31 12:02:48;;;;;;;6.22;2.08;;;4.40;99.90;;;;;;5069061;28;20024;-68
2022/01/31 12:05:20;;;;;;;8.50;2.08;;;4.40;99.90;;;;;;5068659;28;20085;-70
2022/01/31 12:08:08;;;;;;;4.43;2.10;;;4.40;99.90;;;;;;5069334;28;20035;-69
2022/01/31 12:10:42;;;;;;;5.60;2.10;;;4.50;99.90;;;;;;5056797;28;20044;-70
2022/01/31 12:13:33;;;;;;;3.28;1.80;;;4.50;99.90;;;;;;5071263;28;20511;-69
2022/01/31 12:16:06;;;;;;;5.88;2.10;;;4.50;99.90;;;;;;5071594;28;20420;-69
2022/01/31 12:24:05;;;;;;;8.07;2.63;;;4.50;99.90;;;;;;5070543;28;20489;-69
2022/01/31 12:26:33;;;;;;;5.82;1.90;;;4.50;99.90;;;;;;5071465;28;20035;-69
2022/01/31 12:29:15;;;;;;;6.80;1.90;;;4.50;99.90;;;;;;5070128;28;20385;-69
2022/01/31 12:31:45;;;;;;;6.32;2.30;;;4.50;99.90;;;;;;5068035;28;20084;-69
2022/01/31 12:34:17;;;;;;;4.28;1.95;;;4.40;99.90;;;;;;5070953;28;20039;-69
2022/01/31 12:36:42;;;;;;;7.30;2.30;;;4.40;99.90;;;;;;5071111;28;20043;-69
2022/01/31 12:39:31;;;;;;;6.43;2.25;;;4.40;99.90;;;;;;5051585;28;20036;-70
2022/01/31 12:42:15;;;;;;;4.30;2.10;;;4.40;99.90;;;;;;5070410;28;20469;-70
2022/01/31 12:44:42;;;;;;;4.63;1.73;;;4.40;99.90;;;;;;5067408;28;20111;-70
2022/01/31 12:47:16;;;;;;;5.55;1.90;;;4.40;99.90;;;;;;5069827;28;20052;-69
2022/01/31 12:50:05;;;;;;;6.07;1.52;;;4.40;99.90;;;;;;5071102;28;20032;-69
2022/01/31 12:52:37;;;;;;;6.22;1.60;;;4.50;99.90;;;;;;5070465;28;20503;-70
2022/01/31 12:55:10;;;;;;;6.53;1.75;;;4.40;99.90;;;;;;5070726;28;20078;-70
2022/01/31 12:57:52;;;;;;;2.95;1.45;;;4.40;99.90;;;;;;5069739;28;20028;-69
2022/01/31 13:00:39;;;;;;;;;;;4.50;99.90;;;;;;5071494;28;20107;-69
2022/01/31 13:03:05;;;;;;;5.20;2.70;;;4.40;99.90;;;;;;5070744;28;19908;-71
2022/01/31 13:05:35;;;;;;;5.18;1.90;;;4.40;99.90;;;;;;5051885;28;20476;-71
2022/01/31 13:08:16;;;;;;;4.15;1.95;;;4.40;99.90;;;;;;5049886;28;20035;-70
2022/01/31 13:10:42;;;;;;;3.75;1.75;;;4.40;99.90;;;;;;5063325;28;20484;-68
2022/01/31 13:13:07;;;;;;;2.83;1.70;;;4.40;99.90;;;;;;5050757;28;20032;-70
2022/01/31 13:15:33;;;;;;;1.90;1.42;;;4.40;99.90;;;;;;5053042;28;20025;-68
2022/01/31 13:18:06;;;;;;;3.75;1.63;;;4.40;99.90;;;;;;5070059;28;20025;-68
2022/01/31 13:20:33;;;;;;;4.80;2.78;;;4.30;99.90;;;;;;5070179;28;20017;-69
2022/01/31 13:23:00;;;;;;;2.50;1.48;;;4.30;99.90;;;;;;5069855;28;20029;-68
2022/01/31 13:25:27;;;;;;;8.75;3.15;;;4.20;99.90;;;;;;5070496;28;20480;-69
2022/01/31 13:27:54;;;;;;;10.02;3.30;;;4.20;99.90;;;;;;5069428;28;20029;-69
2022/01/31 13:30:25;;;;;;;3.58;2.10;;;4.20;99.90;;;;;;5048992;28;20442;-69
2022/01/31 13:32:53;;;;;;;5.97;2.60;;;4.10;99.90;;;;;;5061227;28;20028;-69
2022/01/31 13:35:19;;;;;;;8.85;3.10;;;4.00;99.90;;;;;;5074847;28;20267;-69
2022/01/31 13:37:53;;;;;;;5.82;2.40;;;4.00;99.90;;;;;;5054771;28;20110;-69
2022/01/31 13:40:24;;;;;;;4.97;2.40;;;3.90;99.90;;;;;;5050811;28;20029;-69